createdAt,value
2022-08-17T00:02:09.846Z,23.70
2022-08-17T00:05:29.038Z,27.10
2022-08-17T00:08:35.101Z,27.80
2022-08-17T00:11:40.586Z,30.70
2022-08-17T00:14:42.586Z,32.10
2022-08-17T00:17:47.533Z,33.00
2022-08-17T00:20:49.241Z,32.30
2022-08-17T00:23:51.165Z,32.20
2022-08-17T00:26:52.830Z,32.90
2022-08-17T00:29:54.550Z,33.40
2022-08-17T00:33:15.709Z,32.70
2022-08-17T00:36:18.476Z,32.10
2022-08-17T00:39:20.432Z,33.90
2022-08-17T00:42:24.489Z,34.20
2022-08-17T00:45:28.261Z,33.40
2022-08-17T00:48:31.044Z,30.80
2022-08-17T00:51:50.378Z,30.40
2022-08-17T00:54:54.255Z,27.10
2022-08-17T00:57:59.244Z,30.20
2022-08-17T01:01:04.290Z,30.10
2022-08-17T01:04:06.521Z,30.50
2022-08-17T01:07:10.657Z,26.00
2022-08-17T01:10:58.843Z,29.30
2022-08-17T01:13:41.443Z,27.60
2022-08-17T01:16:43.506Z,28.50
2022-08-17T01:19:45.476Z,29.70
2022-08-17T01:22:47.556Z,31.80
2022-08-17T01:25:51.024Z,30.70
2022-08-17T01:28:55.686Z,31.40
2022-08-17T01:32:01.090Z,27.50
2022-08-17T01:35:03.087Z,29.10
2022-08-17T01:38:05.437Z,29.10
2022-08-17T01:41:12.978Z,23.80
2022-08-17T01:44:16.776Z,23.30
2022-08-17T01:47:18.617Z,20.80
2022-08-17T01:50:27.811Z,25.10
2022-08-17T01:53:42.458Z,22.10
2022-08-17T01:56:47.619Z,22.90
2022-08-17T01:59:49.670Z,24.00
2022-08-17T02:02:51.573Z,24.90
2022-08-17T02:05:53.738Z,31.10
2022-08-17T02:09:02.230Z,30.80
2022-08-17T02:12:39.149Z,33.70
2022-08-17T02:15:29.294Z,34.00
2022-08-17T02:18:31.008Z,26.80
2022-08-17T02:21:34.337Z,24.80
2022-08-17T02:24:58.279Z,22.40
2022-08-17T02:28:00.169Z,25.60
2022-08-17T02:31:07.911Z,30.10
2022-08-17T02:34:09.907Z,34.00
2022-08-17T02:37:12.019Z,38.60
2022-08-17T02:40:13.849Z,40.00
2022-08-17T02:43:15.806Z,40.50
2022-08-17T02:46:17.612Z,41.70
2022-08-17T02:49:19.415Z,47.50
2022-08-17T02:52:42.413Z,46.30
2022-08-17T02:55:44.131Z,47.00
2022-08-17T02:58:46.501Z,38.50
2022-08-17T03:01:49.109Z,32.60
2022-08-17T03:04:50.987Z,29.10
2022-08-17T03:07:53.427Z,30.80
2022-08-17T03:10:55.778Z,30.30
2022-08-17T03:13:58.716Z,28.10
2022-08-17T03:17:01.386Z,25.20
2022-08-17T03:20:04.765Z,22.70
2022-08-17T03:23:07.052Z,21.30
2022-08-17T03:26:12.184Z,23.80
2022-08-17T03:29:19.329Z,26.00
2022-08-17T03:32:21.145Z,25.80
2022-08-17T03:35:26.210Z,27.20
2022-08-17T03:38:28.012Z,25.80
2022-08-17T03:41:29.926Z,22.40
2022-08-17T03:44:31.694Z,26.30
2022-08-17T03:47:52.047Z,26.00
2022-08-17T03:51:14.797Z,25.80
2022-08-17T03:54:35.571Z,31.30
2022-08-17T03:57:37.983Z,29.60
2022-08-17T04:00:40.584Z,29.80
2022-08-17T04:03:42.311Z,28.60
2022-08-17T04:06:44.606Z,28.00
2022-08-17T04:09:46.299Z,33.90
2022-08-17T04:12:52.989Z,37.80
2022-08-17T04:15:56.349Z,39.00
2022-08-17T04:18:58.098Z,35.30
2022-08-17T04:21:59.980Z,38.20
2022-08-17T04:25:15.154Z,40.40
2022-08-17T04:28:20.782Z,40.00
2022-08-17T04:31:23.049Z,43.10
2022-08-17T04:34:25.233Z,43.90
2022-08-17T04:37:27.075Z,44.60
2022-08-17T04:40:47.282Z,47.20
2022-08-17T04:43:50.142Z,48.30
2022-08-17T04:46:51.850Z,48.60
2022-08-17T04:49:54.079Z,45.90
2022-08-17T04:52:56.319Z,47.20
2022-08-17T04:55:59.332Z,46.00
2022-08-17T04:59:04.658Z,44.70
2022-08-17T05:02:06.698Z,44.00
2022-08-17T05:05:09.050Z,41.10
2022-08-17T05:08:11.281Z,37.40
2022-08-17T05:11:13.928Z,35.80
2022-08-17T05:14:15.789Z,35.00
2022-08-17T05:17:17.587Z,33.50
2022-08-17T05:20:19.799Z,32.90
2022-08-17T05:23:24.499Z,28.00
2022-08-17T05:26:28.061Z,27.20
2022-08-17T05:29:35.302Z,25.70
2022-08-17T05:32:40.305Z,25.50
2022-08-17T05:35:47.048Z,25.20
2022-08-17T05:38:48.961Z,26.90
2022-08-17T05:41:50.814Z,27.40
2022-08-17T05:44:52.736Z,26.70
2022-08-17T05:47:54.535Z,27.00
2022-08-17T05:51:05.127Z,26.00
2022-08-17T05:54:18.071Z,25.60
2022-08-17T05:57:47.659Z,23.60
2022-08-17T06:01:04.615Z,22.70
2022-08-17T06:04:26.858Z,23.60
2022-08-17T06:07:41.924Z,22.60
2022-08-17T06:10:48.649Z,22.50
2022-08-17T06:14:11.706Z,21.60
2022-08-17T06:17:16.213Z,21.40
2022-08-17T06:20:18.110Z,22.70
2022-08-17T06:23:27.034Z,22.50
2022-08-17T06:26:38.516Z,21.80
2022-08-17T06:29:51.057Z,22.30
2022-08-17T06:32:55.809Z,22.70
2022-08-17T06:36:35.371Z,21.90
2022-08-17T06:39:37.877Z,22.60
2022-08-17T06:43:07.860Z,22.70
2022-08-17T06:46:15.616Z,22.50
2022-08-17T06:49:28.691Z,20.10
2022-08-17T06:52:46.274Z,21.40
2022-08-17T06:56:13.786Z,21.00
2022-08-17T06:59:18.806Z,21.40
2022-08-17T07:02:52.122Z,22.40
2022-08-17T07:05:59.524Z,20.20
2022-08-17T07:09:14.587Z,19.80
2022-08-17T07:12:20.044Z,22.20
2022-08-17T07:15:27.619Z,20.80
2022-08-17T07:18:30.504Z,19.70
2022-08-17T07:22:00.050Z,20.50
2022-08-17T07:25:09.028Z,20.10
2022-08-17T07:28:11.170Z,21.10
2022-08-17T07:31:17.080Z,19.90
2022-08-17T07:34:19.095Z,20.40
2022-08-17T07:37:20.962Z,20.60
2022-08-17T07:40:27.246Z,20.20
2022-08-17T07:43:41.160Z,19.20
2022-08-17T07:47:11.438Z,18.40
2022-08-17T07:50:33.438Z,19.40
2022-08-17T07:53:35.761Z,17.90
2022-08-17T07:56:45.552Z,17.70
2022-08-17T08:03:31.946Z,16.70
2022-08-17T08:06:36.398Z,16.10
2022-08-17T08:09:42.658Z,16.00
2022-08-17T08:12:52.746Z,16.40
2022-08-17T08:16:24.610Z,14.80
2022-08-17T08:19:28.374Z,15.10
2022-08-17T08:22:49.721Z,15.10
2022-08-17T08:26:17.964Z,14.80
2022-08-17T08:29:23.369Z,14.10
2022-08-17T08:32:25.033Z,15.00
2022-08-17T08:35:34.641Z,14.20
2022-08-17T08:38:48.771Z,13.90
2022-08-17T08:42:14.428Z,13.80
2022-08-17T08:45:35.987Z,13.90
2022-08-17T08:48:56.921Z,13.30
2022-08-17T08:52:02.995Z,12.00
2022-08-17T08:55:23.013Z,12.30
2022-08-17T08:58:42.093Z,12.90
2022-08-17T09:02:14.338Z,12.60
2022-08-17T09:05:34.966Z,12.40
2022-08-17T09:08:48.696Z,10.20
2022-08-17T09:12:01.397Z,10.50
2022-08-17T09:15:17.798Z,10.50
2022-08-17T09:19:03.216Z,9.70
2022-08-17T09:21:54.701Z,12.10
2022-08-17T09:25:07.199Z,10.60
2022-08-17T09:28:19.323Z,10.40
2022-08-17T09:31:46.398Z,10.20
2022-08-17T09:35:00.221Z,9.60
2022-08-17T09:38:10.164Z,10.80
2022-08-17T09:41:48.502Z,10.10
2022-08-17T09:44:53.921Z,10.50
2022-08-17T09:48:18.529Z,11.30
2022-08-17T09:51:25.520Z,10.30
2022-08-17T09:54:39.201Z,10.80
2022-08-17T09:58:21.774Z,9.30
2022-08-17T10:01:55.959Z,9.20
2022-08-17T10:05:12.775Z,8.80
2022-08-17T10:08:42.567Z,12.00
2022-08-17T10:12:20.174Z,11.80
2022-08-17T10:15:36.724Z,12.30
2022-08-17T10:18:51.345Z,9.10
2022-08-17T10:22:14.684Z,9.30
2022-08-17T10:25:57.831Z,8.00
2022-08-17T10:29:06.728Z,7.40
2022-08-17T10:32:11.811Z,7.40
2022-08-17T10:35:37.746Z,7.50
2022-08-17T10:38:49.989Z,7.00
2022-08-17T10:41:56.132Z,6.70
2022-08-17T10:45:17.708Z,6.60
2022-08-17T10:48:36.839Z,6.30
2022-08-17T10:51:40.722Z,6.50
2022-08-17T10:55:12.599Z,6.50
2022-08-17T10:58:21.991Z,6.20
2022-08-17T11:01:33.883Z,6.00
2022-08-17T11:04:57.407Z,6.20
2022-08-17T11:08:24.971Z,6.50
2022-08-17T11:11:37.203Z,5.90
2022-08-17T11:15:03.831Z,5.80
2022-08-17T11:18:31.697Z,5.70
2022-08-17T11:22:00.789Z,6.30
2022-08-17T11:25:21.208Z,5.80
2022-08-17T11:28:34.645Z,5.90
2022-08-17T11:31:42.702Z,5.80
2022-08-17T11:34:46.075Z,5.40
2022-08-17T11:37:54.263Z,6.10
2022-08-17T11:41:27.450Z,5.80
2022-08-17T11:44:42.392Z,6.00
2022-08-17T11:48:27.225Z,6.40
2022-08-17T11:51:56.805Z,6.00
2022-08-17T11:55:24.191Z,5.90
2022-08-17T11:58:46.006Z,6.30
2022-08-17T12:01:55.879Z,6.10
2022-08-17T12:05:09.794Z,6.20
2022-08-17T12:08:18.594Z,6.30
2022-08-17T12:12:11.277Z,6.30
2022-08-17T12:15:11.733Z,6.70
2022-08-17T12:18:28.084Z,6.40
2022-08-17T12:21:48.821Z,7.10
2022-08-17T12:25:14.780Z,7.00
2022-08-17T12:28:37.385Z,6.50
2022-08-17T12:31:51.213Z,7.20
2022-08-17T12:34:54.041Z,7.50
2022-08-17T12:37:59.784Z,7.10
2022-08-17T12:41:22.939Z,6.80
2022-08-17T12:44:35.922Z,6.90
2022-08-17T12:48:13.209Z,7.10
2022-08-17T12:51:15.086Z,6.70
2022-08-17T12:54:37.821Z,6.80
2022-08-17T12:57:46.549Z,6.60
2022-08-17T13:01:00.511Z,6.50
2022-08-17T13:04:03.830Z,6.50
2022-08-17T13:07:05.698Z,6.60
2022-08-17T13:10:07.818Z,6.20
2022-08-17T13:13:25.096Z,6.60
2022-08-17T13:16:28.755Z,6.00
2022-08-17T13:19:41.110Z,6.20
2022-08-17T13:22:44.527Z,6.30
2022-08-17T13:25:54.459Z,6.30
2022-08-17T13:28:56.379Z,6.70
2022-08-17T13:32:05.166Z,6.00
2022-08-17T13:35:34.471Z,6.10
2022-08-17T13:38:49.558Z,6.40
2022-08-17T13:41:53.896Z,6.40
2022-08-17T13:44:56.248Z,5.70
2022-08-17T13:48:17.051Z,6.30
2022-08-17T13:51:25.914Z,6.20
2022-08-17T13:54:36.089Z,5.90
2022-08-17T13:57:37.966Z,6.20
2022-08-17T14:00:40.850Z,5.90
2022-08-17T14:03:42.665Z,5.30
2022-08-17T14:06:54.985Z,5.80
2022-08-17T14:10:01.539Z,6.10
2022-08-17T14:13:04.052Z,6.40
2022-08-17T14:16:05.885Z,6.40
2022-08-17T14:19:16.774Z,6.70
2022-08-17T14:22:40.194Z,7.30
2022-08-17T14:25:41.895Z,6.90
2022-08-17T14:28:56.339Z,6.10
2022-08-17T14:32:04.992Z,7.30
2022-08-17T14:35:08.395Z,6.10
2022-08-17T14:38:10.074Z,6.00
2022-08-17T14:41:11.958Z,6.10
2022-08-17T14:44:14.244Z,6.10
2022-08-17T14:47:16.082Z,6.50
2022-08-17T14:50:19.713Z,6.50
2022-08-17T14:53:21.529Z,6.60
2022-08-17T14:56:24.509Z,6.70
2022-08-17T14:59:26.339Z,6.40
2022-08-17T15:02:30.013Z,6.30
2022-08-17T15:05:36.687Z,6.50
2022-08-17T15:08:38.589Z,6.40
2022-08-17T15:11:40.575Z,6.90
2022-08-17T15:14:42.449Z,7.30
2022-08-17T15:17:45.894Z,7.30
2022-08-17T15:20:50.102Z,7.70
2022-08-17T15:23:51.925Z,7.30
2022-08-17T15:26:53.712Z,7.90
2022-08-17T15:29:55.500Z,8.20
2022-08-17T15:32:59.253Z,8.00
2022-08-17T15:36:06.555Z,8.60
2022-08-17T15:39:08.300Z,9.00
2022-08-17T15:42:09.947Z,9.50
2022-08-17T15:45:13.713Z,8.90
2022-08-17T15:48:15.459Z,9.20
2022-08-17T15:51:19.310Z,8.90
2022-08-17T15:54:22.818Z,8.50
2022-08-17T15:57:26.382Z,8.50
2022-08-17T16:00:29.555Z,9.40
2022-08-17T16:04:01.480Z,8.90
2022-08-17T16:06:54.455Z,9.00
2022-08-17T16:09:56.166Z,10.00
2022-08-17T16:12:58.811Z,9.50
2022-08-17T16:16:00.948Z,10.30
2022-08-17T16:19:03.098Z,11.40
2022-08-17T16:22:07.244Z,12.10
2022-08-17T16:25:13.879Z,10.80
2022-08-17T16:28:17.057Z,9.20
2022-08-17T16:31:19.346Z,9.90
2022-08-17T16:34:21.492Z,9.30
2022-08-17T16:37:23.261Z,9.80
2022-08-17T16:40:28.957Z,9.50
2022-08-17T16:43:31.359Z,10.40
2022-08-17T16:46:33.721Z,10.10
2022-08-17T16:49:38.139Z,9.90
2022-08-17T16:52:40.546Z,10.80
2022-08-17T16:55:42.855Z,11.80
2022-08-17T16:58:45.383Z,11.80
2022-08-17T17:01:48.046Z,10.60
2022-08-17T17:04:53.887Z,10.30
2022-08-17T17:08:05.057Z,10.80
2022-08-17T17:11:13.118Z,9.90
2022-08-17T17:14:22.801Z,10.20
2022-08-17T17:17:35.899Z,10.80
2022-08-17T17:20:47.884Z,10.70
2022-08-17T17:24:01.343Z,10.40
2022-08-17T17:27:21.577Z,11.90
2022-08-17T17:33:40.453Z,11.80
2022-08-17T17:36:48.373Z,12.30
2022-08-17T17:39:53.380Z,13.90
2022-08-17T17:43:09.289Z,12.90
2022-08-17T17:46:27.851Z,14.00
2022-08-17T17:49:39.291Z,13.00
2022-08-17T17:52:47.450Z,12.70
2022-08-17T17:56:06.929Z,12.00
2022-08-17T17:59:51.418Z,13.00
2022-08-17T18:03:21.143Z,12.40
2022-08-17T18:06:33.183Z,16.40
2022-08-17T18:10:02.623Z,15.00
2022-08-17T18:13:15.460Z,15.10
2022-08-17T18:16:19.312Z,16.00
2022-08-17T18:19:21.678Z,15.30
2022-08-17T18:22:24.249Z,18.20
2022-08-17T18:25:48.037Z,17.40
2022-08-17T18:28:51.785Z,17.90
2022-08-17T18:32:31.442Z,17.00
2022-08-17T18:35:35.217Z,16.70
2022-08-17T18:38:40.222Z,16.90
2022-08-17T18:41:45.339Z,20.50
2022-08-17T18:44:49.583Z,19.10
2022-08-17T18:47:55.462Z,18.10
2022-08-17T18:51:01.240Z,17.00
2022-08-17T18:54:08.860Z,18.10
2022-08-17T18:57:11.109Z,18.00
2022-08-17T19:00:36.403Z,17.90
2022-08-17T19:03:42.404Z,17.20
2022-08-17T19:06:44.391Z,17.80
2022-08-17T19:09:49.292Z,17.00
2022-08-17T19:13:12.518Z,17.60
2022-08-17T19:16:20.900Z,18.10
2022-08-17T19:19:28.912Z,19.50
2022-08-17T19:22:50.942Z,20.60
2022-08-17T19:25:59.159Z,20.20
2022-08-17T19:29:12.579Z,22.40
2022-08-17T19:32:18.843Z,22.80
2022-08-17T19:35:22.275Z,22.60
2022-08-17T19:38:35.026Z,25.50
2022-08-17T19:42:03.825Z,20.90
2022-08-17T19:45:45.289Z,23.80
2022-08-17T19:49:03.729Z,22.90
2022-08-17T19:52:30.233Z,21.30
2022-08-17T19:55:43.615Z,22.30
2022-08-17T19:59:01.129Z,22.30
2022-08-17T20:02:42.109Z,25.40
2022-08-17T20:06:11.928Z,26.50
2022-08-17T20:09:26.102Z,24.20
2022-08-17T20:12:38.250Z,26.40
2022-08-17T20:15:42.639Z,24.80
2022-08-17T20:18:55.579Z,21.70
2022-08-17T20:22:06.439Z,23.00
2022-08-17T20:28:30.646Z,25.00
2022-08-17T20:31:40.290Z,29.00
2022-08-17T20:34:45.614Z,27.80
2022-08-17T20:38:08.303Z,21.80
2022-08-17T20:41:14.176Z,18.50
2022-08-17T20:44:31.907Z,21.10
2022-08-17T20:48:07.396Z,25.30
2022-08-17T20:51:18.574Z,25.10
2022-08-17T20:54:31.895Z,23.10
2022-08-17T20:57:33.621Z,21.50
2022-08-17T21:00:59.079Z,27.00
2022-08-17T21:04:07.249Z,27.60
2022-08-17T21:07:33.030Z,31.20
2022-08-17T21:10:47.070Z,27.70
2022-08-17T21:14:05.503Z,27.20
2022-08-17T21:17:17.832Z,26.10
2022-08-17T21:20:27.813Z,27.90
2022-08-17T21:24:04.714Z,26.30
2022-08-17T21:27:24.717Z,24.20
2022-08-17T21:30:29.425Z,23.90
2022-08-17T21:33:33.828Z,23.60
2022-08-17T21:36:35.513Z,25.40
2022-08-17T21:39:40.683Z,24.40
2022-08-17T21:42:48.426Z,23.20
2022-08-17T21:46:06.096Z,26.20
2022-08-17T21:49:13.783Z,24.60
2022-08-17T21:52:21.409Z,25.10
2022-08-17T21:55:29.275Z,24.70
2022-08-17T21:58:40.336Z,24.60
2022-08-17T22:05:02.477Z,22.60
2022-08-17T22:08:16.808Z,25.70
2022-08-17T22:11:18.727Z,24.80
2022-08-17T22:14:51.513Z,21.80
2022-08-17T22:17:55.930Z,24.50
2022-08-17T22:20:59.455Z,22.60
2022-08-17T22:24:04.706Z,21.90
2022-08-17T22:27:11.722Z,21.50
2022-08-17T22:30:29.205Z,23.10
2022-08-17T22:33:46.597Z,24.10
2022-08-17T22:36:48.362Z,26.60
2022-08-17T22:39:58.989Z,26.60
2022-08-17T22:43:03.637Z,27.60
2022-08-17T22:46:07.977Z,35.00
2022-08-17T22:49:09.825Z,30.20
2022-08-17T23:05:13.057Z,24.60
2022-08-17T23:08:21.475Z,26.20
2022-08-17T23:11:36.902Z,23.60
2022-08-17T23:23:23.974Z,27.50
2022-08-17T23:26:27.891Z,28.20
2022-08-17T23:29:29.725Z,28.40
2022-08-17T23:32:31.598Z,29.70
2022-08-17T23:35:40.136Z,30.00
2022-08-17T23:38:46.701Z,30.00
2022-08-17T23:41:50.516Z,33.10
2022-08-17T23:44:53.228Z,27.90
2022-08-17T23:47:55.459Z,28.90
2022-08-17T23:50:57.381Z,26.00
2022-08-17T23:54:12.637Z,25.40
2022-08-17T23:57:17.815Z,21.00
